• Join FlightAware (Why Join?)
  • Login
  • US Flag 
01:53AM EDT


 

Airport Tracker/Info


-or-


 

Live Flight TrackerFlight Track Log ✈ N560PA ✈ 01-Aug-2013 ✈ KAPF - KFDK

Flight Track Log - Related Links

Times and Time Zones

All times are in EDT time to prevent confusion due to time zone crossing. See the N560PA flight status page for this flight to view local times or setup timezone preferences in your user account.

Time Position Orientation Groundspeed Altitude Reporting Facility
EDT Latitude Longitude Course Direction KTS MPH feet Rate Location/Type
12:10PM 26.2097 -81.6797 North 228 262 3,700  Level Miami Center
12:12PM 26.3044 -81.5911 40° Northeast 235 270 8,700 2,460 Climbing Miami Center
12:13PM 26.3789 -81.6103 347° North 226 260 11,100 2,400 Climbing Miami Center
12:14PM 26.4475 -81.6247 349° North 260 299 13,500 2,280 Climbing Miami Center
12:15PM 26.7189 -81.7500 North  Level FlightAware Approximate
12:15PM 26.5303 -81.6442 348° North 274 315 15,700  Level Miami Center
12:16PM 26.6050 -81.6611 349° North 274 315 17,600 1,800 Climbing Miami Center
12:17PM 26.6858 -81.6761 351° North 279 321 19,300 1,740 Climbing Miami Center
12:18PM 26.7625 -81.6908 350° North 279 321 21,100 1,740 Climbing Miami Center
12:19PM 26.8414 -81.7081 349° North 279 321 22,800 1,440 Climbing Miami Center
12:20PM 26.9200 -81.7253 349° North 279 321 24,000 1,080 Climbing Miami Center
12:21PM 27.0042 -81.7103 North 284 327 25,000 780 Climbing Miami Center
12:22PM 27.0989 -81.6861 13° North 321 369 25,600 900 Climbing Miami Center
12:23PM 27.1894 -81.6642 12° North 334 384 26,800 1,200 Climbing Miami Center
12:24PM 27.2839 -81.6425 12° North 339 390 28,100 1,320 Climbing Miami Center
12:25PM 27.3639 -81.6225 13° North 334 384 29,500 1,200 Climbing Miami Center
12:26PM 27.4544 -81.6028 11° North 334 384 30,500 1,080 Climbing Miami Center
12:27PM 27.5533 -81.5786 12° North 334 384 31,700 1,080 Climbing Miami Center
12:28PM 27.6436 -81.5567 12° North 334 384 32,700 1,020 Climbing Miami Center
12:29PM 27.7342 -81.5369 11° North 334 384 33,800 1,020 Climbing Miami Center
12:30PM 27.8161 -81.5169 12° North 334 384 34,800 1,020 Climbing Miami Center
12:31PM 27.9047 -81.4900 15° North 334 384 35,900 960 Climbing Miami Center
12:32PM 27.9836 -81.4367 31° Northeast 321 369 36,800 900 Climbing Miami Center
12:33PM 28.0644 -81.3858 29° Northeast 308 354 37,800 900 Climbing Miami Center
12:34PM 28.1364 -81.3583 19° North 298 343 38,600 720 Climbing Miami Center
12:35PM 28.2217 -81.3664 355° North 293 337 39,300 600 Climbing Miami Center
12:37PM 28.3622 -81.3711 358° North 316 364 40,300 600 Climbing Jacksonville Center
12:38PM 28.4478 -81.3792 355° North 311 358 41,000 300 Climbing Jacksonville Center
12:39PM 28.5375 -81.3825 358° North 306 352 41,000  Level Jacksonville Center
12:40PM 28.6275 -81.3908 355° North 312 359 41,000  Level Jacksonville Center
12:41PM 28.7192 -81.3964 357° North 325 374 41,000  Level Jacksonville Center
12:42PM 28.8175 -81.4067 355° North 335 386 41,000  Level Jacksonville Center
12:43PM 28.9156 -81.4100 358° North 345 397 41,000  Level Jacksonville Center
12:44PM 29.0181 -81.4203 355° North 351 404 41,000  Level Jacksonville Center
12:45PM 29.1183 -81.4283 356° North 356 410 41,000  Level Jacksonville Center
12:46PM 29.2228 -81.4364 356° North 361 415 41,000  Level Jacksonville Center
12:47PM 29.3250 -81.4419 357° North 366 421 41,000  Level Jacksonville Center
12:48PM 29.4419 -81.4497 357° North 373 429 41,000  Level Jacksonville Center
12:49PM 29.5464 -81.4556 357° North 373 429 41,000  Level Jacksonville Center
12:50PM 29.6511 -81.4633 356° North 373 429 41,000  Level Jacksonville Center
12:51PM 29.7556 -81.4714 356° North 373 429 41,000  Level Jacksonville Center
12:52PM 29.8600 -81.4747 358° North 373 429 41,000  Level Jacksonville Center
12:53PM 29.9644 -81.4828 356° North 368 423 41,000  Level Jacksonville Center
12:54PM 30.0708 -81.4908 356° North 368 423 41,000  Level Jacksonville Center
12:55PM 30.1775 -81.4989 356° North 368 423 41,000  Level Jacksonville Center
12:56PM 30.2797 -81.5022 358° North 368 423 41,000 -60 Level Jacksonville Center
12:57PM 30.3883 -81.5008 North 368 423 40,900  Descending Jacksonville Center
12:58PM 30.4947 -81.4822 North 368 423 41,000  Climbing Jacksonville Center
12:59PM 30.5967 -81.4664 North 368 423 41,000  Level Jacksonville Center
01:00PM 30.7008 -81.4478 North 368 423 41,000  Level Jacksonville Center
01:01PM 30.8072 -81.4292 North 373 429 41,000  Level Jacksonville Center
01:02PM 30.9114 -81.4156 North 373 429 41,000  Level Jacksonville Center
01:03PM 31.0178 -81.3969 North 373 429 41,000 300 Level Jacksonville Center
01:04PM 31.1219 -81.3783 North 363 418 41,600 720 Climbing Jacksonville Center
01:05PM 31.2178 -81.3597 North 347 399 42,500 660 Climbing Jacksonville Center
01:06PM 31.3094 -81.3461 North 336 387 43,000 240 Climbing Jacksonville Center
01:07PM 31.3989 -81.3275 10° North 327 376 43,000  Level Jacksonville Center
01:08PM 31.4864 -81.3139 North 339 390 43,000  Level Jacksonville Center
01:09PM 31.5947 -81.2950 North 349 402 43,000  Level Jacksonville Center
01:10PM 31.6947 -81.2786 North 349 402 43,000  Level Jacksonville Center
01:11PM 31.7844 -81.2625 North 349 402 43,000  Level Jacksonville Center
01:12PM 31.8864 -81.2433 North 357 411 43,000  Level Jacksonville Center
01:13PM 31.9886 -81.2269 North 362 417 43,000  Level Jacksonville Center
01:14PM 32.0906 -81.2103 North 369 425 43,000  Level Jacksonville Center
01:15PM 32.1925 -81.1767 16° North 369 425 43,000  Level Jacksonville Center
01:16PM 32.2856 -81.1183 28° Northeast 369 425 43,000  Level Jacksonville Center
01:17PM 32.3956 -81.0597 24° Northeast 374 430 43,000  Level Jacksonville Center
01:18PM 32.4803 -81.0061 28° Northeast 384 442 43,000  Level Jacksonville Center
01:19PM 32.5753 -80.9475 27° Northeast 384 442 43,000  Level Jacksonville Center
01:20PM 32.6728 -80.8936 25° Northeast 384 442 43,000  Level Jacksonville Center
01:21PM 32.7719 -80.8344 27° Northeast 384 442 43,000  Level Jacksonville Center
01:22PM 32.8692 -80.7756 27° Northeast 384 442 43,000  Level Jacksonville Center
01:23PM 32.9683 -80.7186 26° Northeast 384 442 43,000  Level Jacksonville Center
01:24PM 33.0656 -80.6642 25° Northeast 379 436 43,000  Level Jacksonville Center
01:25PM 33.1667 -80.6047 26° Northeast 384 442 43,000  Level Jacksonville Center
01:26PM 33.2739 -80.5372 28° Northeast 384 442 43,000  Level Jacksonville Center
01:27PM 33.3750 -80.4775 26° Northeast 384 442 43,000  Level Jacksonville Center
01:28PM 33.4742 -80.4175 27° Northeast 384 442 43,000  Level Jacksonville Center
01:29PM 33.5731 -80.3575 27° Northeast 384 442 43,000  Level Jacksonville Center
01:30PM 33.6700 -80.2997 26° Northeast 384 442 43,000  Level Jacksonville Center
01:31PM 33.7708 -80.2392 27° Northeast 384 442 43,000  Level Jacksonville Center
01:32PM 33.8678 -80.1764 28° Northeast 384 442 43,000  Level Jacksonville Center
01:33PM 33.9667 -80.1181 26° Northeast 384 442 43,000  Level Jacksonville Center
01:34PM 34.0675 -80.0547 27° Northeast 384 442 43,000  Level Jacksonville Center
01:35PM 34.1683 -79.9939 27° Northeast 384 442 43,000  Level Jacksonville Center
01:36PM 34.2669 -79.9328 27° Northeast 389 448 43,000  Level Jacksonville Center
01:37PM 34.3656 -79.8714 27° Northeast 389 448 43,000  Level Jacksonville Center
01:39PM 34.5586 -79.7503 27° Northeast 389 448 43,000  Level Washington Center
01:40PM 34.6589 -79.6872 27° Northeast 399 459 43,000  Level Washington Center
01:41PM 34.7589 -79.6267 26° Northeast 399 459 43,000  Level Washington Center
01:42PM 34.8633 -79.5636 26° Northeast 399 459 43,000  Level Washington Center
01:43PM 34.9592 -79.5022 28° Northeast 399 459 43,000 -180 Level Washington Center
01:44PM 35.0614 -79.4389 27° Northeast 399 459 42,700 -660 Descending Washington Center
01:45PM 35.1756 -79.3958 17° North 405 466 41,700 -900 Descending Washington Center
01:46PM 35.2933 -79.3583 15° North 419 482 41,000 -360 Descending Washington Center
01:47PM 35.4136 -79.3156 16° North 433 498 41,000 -480 Level Washington Center
01:48PM 35.5361 -79.2728 16° North 448 516 40,100 -1,080 Descending Washington Center
01:49PM 35.6647 -79.2300 15° North 460 529 38,900 -1,200 Descending Washington Center
01:50PM 35.7892 -79.1844 17° North 465 535 37,800 -1,200 Descending Washington Center
01:51PM 35.9156 -79.1417 15° North 465 535 36,600 -960 Descending Washington Center
01:52PM 36.0253 -79.1028 16° North 459 528 35,700 -1,080 Descending Washington Center
01:53PM 36.1708 -79.0503 16° North 459 528 34,300 -1,380 Descending Washington Center
01:54PM 36.2931 -79.0039 17° North 459 528 33,100 -1,080 Descending Washington Center
01:55PM 36.4153 -78.9628 15° North 459 528 32,200 -1,260 Descending Washington Center
01:56PM 36.5356 -78.9164 17° North 459 528 30,600 -1,560 Descending Washington Center
01:57PM 36.6578 -78.8750 15° North 454 522 29,100 -1,260 Descending Washington Center
01:58PM 36.7883 -78.8286 16° North 449 517 28,200 -1,140 Descending Washington Center
01:59PM 36.8992 -78.8178 North 437 503 26,900 -1,320 Descending Washington Center
02:00PM 37.0186 -78.7992 North 431 496 25,700 -960 Descending Washington Center
02:01PM 37.1381 -78.7808 North 425 489 25,000 -240 Descending Washington Center
02:03PM 37.3747 -78.7461 North 410 472 25,000  Level Washington Center
02:04PM 37.4897 -78.7300 North 410 472 25,000 -360 Level Washington Center
02:05PM 37.5944 -78.7161 North 410 472 24,300 3,960 Descending Washington Center
02:06PM 37.7075 -78.6997 North 410 472 33,000 -1,200 Climbing Washington Center
02:07PM 37.8164 -78.6831 North 404 465 22,000 -6,300 Descending Washington Center
02:08PM 37.9336 -78.6669 North 392 451 20,600 -1,260 Descending Washington Center
02:09PM 38.0383 -78.6528 North 386 444 19,500 -1,140 Descending Washington Center
02:10PM 38.1389 -78.6383 North 380 437 18,400 -1,140 Descending Washington Center
02:11PM 38.2331 -78.6264 North 374 430 17,300 -1,200 Descending Washington Center
02:12PM 38.3375 -78.6094 North 352 405 16,000 -1,140 Descending Washington Center
02:13PM 38.4361 -78.5950 North 352 405 15,100 -420 Descending Washington Center
02:14PM 38.5322 -78.5803 North 352 405 15,100  Level Washington Center
02:15PM 38.6397 -78.5367 18° North 341 392 15,100  Level Washington Center
02:16PM 38.7167 -78.4625 37° Northeast 330 380 15,100  Level Washington Center
02:17PM 38.7953 -78.3911 35° Northeast 340 391 15,100 -120 Level Washington Center
02:18PM 38.8742 -78.3194 35° Northeast 346 398 14,900 -720 Descending Washington Center
02:19PM 38.9508 -78.2475 36° Northeast 346 398 13,700 -1,260 Descending Washington Center
02:20PM 39.0272 -78.1808 34° Northeast 341 392 12,400 -1,380 Descending Washington Center
02:21PM 39.1017 -78.1111 36° Northeast 341 392 11,000 -1,380 Descending Washington Center
02:22PM 39.1656 -78.0519 36° Northeast 335 386 9,700 -1,800 Descending Washington Center
02:23PM 39.2292 -77.9922 36° Northeast 304 350 7,400 -1,680 Descending Washington Center
02:25PM 39.3333 -77.9167 29° Northeast 230 265 4,900 -1,140 Descending Potomac TRACON
02:26PM 39.4000 -77.8500 38° Northeast 256 295 4,000 -840 Descending Potomac TRACON
02:27PM 39.4000 -77.7667 90° East 273 314 3,300 -540 Descending Potomac TRACON
02:28PM 39.4000 -77.6833 90° East 266 306 3,000 -180 Descending Potomac TRACON
02:29PM 39.4000 -77.5833 90° East 251 289 3,000 -540 Level Potomac TRACON
02:30PM 39.4167 -77.5000 75° East 246 283 2,000 -720 Descending Potomac TRACON
02:31PM 39.4167 -77.4500 90° East 224 258 1,700 -420 Descending Potomac TRACON
02:32PM 39.4333 -77.4000 67° East 178 205 1,300 -360 Descending Potomac TRACON
02:33PM 39.4500 -77.3667 57° Northeast 126 145 1,000 -480 Descending Potomac TRACON
02:34PM 39.4333 -77.3667 180° South 171 197 400 -720 Descending Potomac TRACON